Detall de PIREP

Printer-friendly versionPDF version

[2013/07/14 16:15:00]
Flight IATA:CT2115
Pilot Number:012
Company ICAO:CAT
Aircraft Type:B463/A
PAX:0
Aircraft Registration:CARGO
Departing Airport: LEXJ
Destination Airport: LEVC
Alternate Airport:LEPA
Online: VATSIM
Route:BLV/M070F280 UM601 GRAUS/M070F270 UN860 SAURA
Flight Level:F270
No Slew and time accel
No pause
Crash detect
Detect pilot in Cockpit between each 30 and 45 minutes
16:15 Zero fuel Weight: 80400 Lbs, Fuel Weight: 14012 Lbs
16:15 VATSIM:LEXJ 141600Z 05006KT 010V100 CAVOK 23/18 Q1020
16:15 VATSIM:LEVC 141600Z 09012KT 050V120 9999 FEW020 28/22 Q1017 NOSIG
16:15 VOICE CATALONIAN
16:26 Parking Brakes off
16:31 Take-off
16:31 Take off Weight: 93885 Lbs
16:31 Wind: 061º @ 006 Knots Heading: 291º
16:31 POS N43º 25´ 43´´ W003º 49´ 33´´
16:31 Gear Up: 139 Knots
16:31 Flaps:2 at 139 Knots
16:32 Flaps:1 at 145 Knots
16:32 Flaps:0 at 147 Knots
16:43 TOC
16:43 Fuel Weight: 11443 Lb
16:46 Wind:335º@007 Knots Heading: 120º Ground Speed: 432 Knots Altitude 28198 ft
17:01 Wind:021º@005 Knots Heading: 115º Ground Speed: 434 Knots Altitude 28146 ft
17:16 Wind:315º@008 Knots Heading: 194º Ground Speed: 438 Knots Altitude 27119 ft
17:18 TOD
17:18 Fuel Weight: 7964 Lb
17:31 Wind:106º@002 Knots Heading: 229º Ground Speed: 219 Knots Altitude 4996 ft
17:33 Flaps:1 at 209 Knots
17:34 Flaps:2 at 175 Knots
17:34 Gear Down: 176 Knots
17:34 Flaps:3 at 142 Knots
17:35 Flaps:4 at 135 Knots
17:40 TouchDown:Rate -447 ft/min Speed: 114 Knots
17:40 VATSIM:LEVC 141730Z 08010KT 040V110 9999 SCT020 27/21 Q1017 TEMPO FEW015CB
17:40 Land
17:40 Wind:081º@016 Knots
17:40 Heading: 117º
17:40 Flight Duration: 01:09
17:40 Landing Weight: 87364 Lbs
17:40 POS N39º 29´ 17´´ W000º 28´ 43´´
17:43 Parking brakes on
17:43 Block to Block Duration: 01:17
17:43 Final Fuel: 6851 Lbls
17:43 Spent Fuel: 7160 Lbls
17:43 Flight Length: 405 NM
17:43 TOD Land Length: 94 NM

Exportar CSV

Powered by Drupal - Modified by Danger4k